Time;durP1;ratioP1;P1;durP2;ratioP2;P2;SDS_P1;SDS_P2;PMS_P1;PMS_P2;Temp;Humidity;BMP_temperature;BMP_pressure;BME280_temperature;BME280_humidity;BME280_pressure;Samples;Min_cycle;Max_cycle;Signal;HPM_P1;HPM_P2
2022/11/07 00:01:11;;;;;;;19.40;12.13;;;;;;;;;;6316260;27;20058;-63
2022/11/07 00:04:14;;;;;;;16.55;11.25;;;;;;;;;;6317613;28;20188;-64
2022/11/07 00:07:16;;;;;;;18.25;11.18;;;;;;;;;;6318400;28;20056;-66
2022/11/07 00:10:17;;;;;;;16.42;10.95;;;;;;;;;;6301680;28;20063;-65
2022/11/07 00:13:19;;;;;;;18.23;11.23;;;;;;;;;;6311819;28;20052;-65
2022/11/07 00:16:21;;;;;;;14.80;10.50;;;;;;;;;;6314304;28;20052;-66
2022/11/07 00:19:24;;;;;;;18.88;11.15;;;;;;;;;;6315839;28;20052;-66
2022/11/07 00:22:26;;;;;;;16.25;10.77;;;;;;;;;;6318622;28;20267;-65
2022/11/07 00:25:27;;;;;;;15.77;10.60;;;;;;;;;;6314903;28;20048;-66
2022/11/07 00:28:29;;;;;;;16.40;9.98;;;;;;;;;;6318477;28;20336;-66
2022/11/07 00:31:30;;;;;;;18.13;10.88;;;;;;;;;;6317876;28;20056;-65
2022/11/07 00:34:34;;;;;;;18.63;11.35;;;;;;;;;;6318762;28;20055;-66
2022/11/07 00:37:36;;;;;;;18.52;10.32;;;;;;;;;;6317022;28;20067;-66
2022/11/07 00:40:37;;;;;;;24.08;10.95;;;;;;;;;;6315682;28;20105;-65
2022/11/07 00:43:39;;;;;;;21.00;11.68;;;;;;;;;;6320475;28;20056;-66
2022/11/07 00:46:41;;;;;;;16.08;10.48;;;;;;;;;;6324991;28;20055;-66
2022/11/07 00:49:44;;;;;;;17.55;9.80;;;;;;;;;;6321994;28;20037;-64
2022/11/07 00:52:45;;;;;;;22.33;11.30;;;;;;;;;;6316161;27;20056;-64
2022/11/07 00:55:47;;;;;;;18.20;11.43;;;;;;;;;;6314909;28;20056;-64
2022/11/07 00:58:48;;;;;;;17.17;10.18;;;;;;;;;;6315033;28;20080;-67
2022/11/07 01:01:50;;;;;;;15.68;10.18;;;;;;;;;;6316729;28;20040;-64
2022/11/07 01:08:09;;;;;;;16.98;10.45;;;;;;;;;;6315886;28;20055;-64
2022/11/07 01:11:10;;;;;;;17.58;10.05;;;;;;;;;;6316953;28;20048;-63
2022/11/07 01:14:13;;;;;;;17.30;10.20;;;;;;;;;;6323187;28;20098;-65
2022/11/07 01:17:15;;;;;;;17.75;10.90;;;;;;;;;;6325181;28;20113;-63
2022/11/07 01:20:18;;;;;;;17.98;10.68;;;;;;;;;;6326720;28;20090;-62
2022/11/07 01:23:21;;;;;;;19.08;11.02;;;;;;;;;;6323969;28;20736;-65
2022/11/07 01:26:22;;;;;;;19.02;10.93;;;;;;;;;;6325242;28;20074;-67
2022/11/07 01:29:24;;;;;;;20.05;11.60;;;;;;;;;;6324392;28;20048;-67
2022/11/07 01:32:26;;;;;;;20.27;10.68;;;;;;;;;;6325483;28;20056;-66
2022/11/07 01:35:29;;;;;;;19.20;11.00;;;;;;;;;;6315878;28;20055;-66
2022/11/07 01:38:31;;;;;;;21.80;11.98;;;;;;;;;;6322758;28;20048;-65
2022/11/07 01:41:36;;;;;;;17.52;11.23;;;;;;;;;;6320170;28;20270;-65
2022/11/07 01:44:53;;;;;;;20.83;12.07;;;;;;;;;;6318736;28;20078;-66
2022/11/07 01:47:56;;;;;;;17.02;11.20;;;;;;;;;;6319460;28;20063;-65
2022/11/07 01:50:59;;;;;;;18.60;11.07;;;;;;;;;;6319974;28;20243;-66
2022/11/07 01:54:01;;;;;;;21.98;12.73;;;;;;;;;;6319399;28;20133;-65
2022/11/07 01:57:06;;;;;;;19.90;11.52;;;;;;;;;;6318089;28;20052;-66
2022/11/07 02:00:10;;;;;;;17.20;11.00;;;;;;;;;;6318148;28;20044;-66
2022/11/07 02:03:16;;;;;;;16.75;10.98;;;;;;;;;;6315684;28;20068;-65
2022/11/07 02:06:22;;;;;;;23.08;12.63;;;;;;;;;;6318929;28;20048;-66
2022/11/07 02:09:24;;;;;;;19.70;12.45;;;;;;;;;;6315191;27;20048;-65
2022/11/07 02:12:26;;;;;;;17.45;12.07;;;;;;;;;;6317792;28;20351;-65
2022/11/07 02:15:28;;;;;;;18.25;11.23;;;;;;;;;;6318288;28;20059;-66
2022/11/07 02:18:30;;;;;;;16.83;11.27;;;;;;;;;;6318299;28;20118;-66
2022/11/07 02:21:41;;;;;;;16.92;11.27;;;;;;;;;;6317722;28;20158;-66
2022/11/07 02:24:45;;;;;;;18.30;10.75;;;;;;;;;;6318497;28;21732;-66
2022/11/07 02:27:48;;;;;;;;;;;;;;;;;;6316021;28;20055;-64
2022/11/07 02:30:49;;;;;;;20.10;11.95;;;;;;;;;;6317900;28;20140;-65
2022/11/07 02:33:51;;;;;;;22.85;11.90;;;;;;;;;;6319140;27;20292;-66
2022/11/07 02:36:52;;;;;;;23.67;12.38;;;;;;;;;;6318892;28;20056;-66
2022/11/07 02:39:55;;;;;;;21.80;13.05;;;;;;;;;;6321785;28;20138;-63
2022/11/07 02:42:58;;;;;;;19.08;12.25;;;;;;;;;;6319218;28;20048;-66
2022/11/07 02:46:01;;;;;;;23.77;12.95;;;;;;;;;;6317241;28;20081;-64
2022/11/07 02:49:03;;;;;;;19.20;12.52;;;;;;;;;;6316646;28;20328;-63
2022/11/07 02:52:05;;;;;;;23.38;12.80;;;;;;;;;;6317162;28;20048;-64
2022/11/07 02:55:09;;;;;;;24.23;12.38;;;;;;;;;;6315547;28;20052;-65
2022/11/07 02:58:10;;;;;;;24.25;13.60;;;;;;;;;;6319112;28;20217;-64
2022/11/07 03:01:12;;;;;;;18.35;12.88;;;;;;;;;;6316826;28;20063;-63
2022/11/07 03:04:14;;;;;;;19.30;12.70;;;;;;;;;;6319913;28;20052;-64
2022/11/07 03:07:15;;;;;;;17.52;12.48;;;;;;;;;;6317212;28;20044;-64
2022/11/07 03:10:19;;;;;;;19.45;12.27;;;;;;;;;;6317732;28;20328;-65
2022/11/07 03:13:20;;;;;;;20.60;12.97;;;;;;;;;;6317143;28;20052;-64
2022/11/07 03:16:22;;;;;;;17.80;12.35;;;;;;;;;;6313622;28;20090;-65
2022/11/07 03:19:24;;;;;;;19.77;12.57;;;;;;;;;;6316072;28;20048;-63
2022/11/07 03:22:26;;;;;;;19.63;12.18;;;;;;;;;;6314953;28;20044;-63
2022/11/07 03:25:29;;;;;;;21.17;13.27;;;;;;;;;;6313746;28;20212;-64
2022/11/07 03:28:30;;;;;;;19.73;12.73;;;;;;;;;;6318231;28;20048;-66
2022/11/07 03:31:32;;;;;;;17.45;12.80;;;;;;;;;;6317649;28;20052;-65
2022/11/07 03:34:34;;;;;;;20.98;13.50;;;;;;;;;;6317627;28;20332;-66
2022/11/07 03:37:35;;;;;;;19.33;12.98;;;;;;;;;;6317886;28;20101;-65
2022/11/07 03:40:38;;;;;;;17.75;12.60;;;;;;;;;;6315795;28;20060;-61
2022/11/07 03:43:40;;;;;;;17.77;12.35;;;;;;;;;;6317005;28;20052;-64
2022/11/07 03:46:41;;;;;;;18.27;12.40;;;;;;;;;;6314993;28;20097;-63
2022/11/07 06:08:36;;;;;;;10.32;7.30;;;;;;;;;;6395020;23;20328;-64
2022/11/07 06:11:38;;;;;;;12.15;7.30;;;;;;;;;;6273725;28;20264;-67
2022/11/07 06:14:39;;;;;;;10.82;7.85;;;;;;;;;;6271776;28;20087;-66
2022/11/07 06:17:41;;;;;;;10.07;7.30;;;;;;;;;;6269509;28;20048;-70
2022/11/07 06:20:43;;;;;;;10.82;7.55;;;;;;;;;;6269217;28;20119;-66
2022/11/07 06:23:46;;;;;;;12.27;7.35;;;;;;;;;;6267806;28;20041;-63
2022/11/07 06:26:47;;;;;;;14.80;8.57;;;;;;;;;;6267408;28;20053;-65
2022/11/07 06:29:49;;;;;;;15.65;8.80;;;;;;;;;;6268052;28;20068;-68
2022/11/07 06:32:50;;;;;;;15.07;9.27;;;;;;;;;;6269870;28;20086;-64
2022/11/07 06:35:52;;;;;;;15.68;9.45;;;;;;;;;;6268218;28;20045;-63
2022/11/07 06:38:55;;;;;;;15.13;9.05;;;;;;;;;;6270576;28;20049;-66
2022/11/07 06:41:56;;;;;;;11.93;8.90;;;;;;;;;;6265413;28;20061;-63
2022/11/07 06:44:58;;;;;;;16.30;9.73;;;;;;;;;;6265953;28;20115;-64
2022/11/07 06:48:00;;;;;;;16.40;9.80;;;;;;;;;;6273715;28;20048;-64
2022/11/07 06:51:03;;;;;;;13.93;10.35;;;;;;;;;;6264447;28;20061;-63
2022/11/07 06:54:06;;;;;;;14.57;10.05;;;;;;;;;;6270330;28;20056;-67
2022/11/07 06:57:08;;;;;;;16.50;9.60;;;;;;;;;;6242191;28;20076;-62
2022/11/07 07:00:10;;;;;;;19.33;9.93;;;;;;;;;;6268822;28;20057;-61
2022/11/07 07:03:12;;;;;;;15.15;10.32;;;;;;;;;;6269176;28;20065;-62
2022/11/07 07:06:15;;;;;;;16.13;9.65;;;;;;;;;;6264220;28;20111;-63
2022/11/07 07:09:18;;;;;;;14.10;9.93;;;;;;;;;;6238291;28;20089;-64
2022/11/07 07:12:20;;;;;;;14.98;9.73;;;;;;;;;;6249287;28;20075;-65
2022/11/07 07:15:21;;;;;;;15.18;10.02;;;;;;;;;;6224308;28;20129;-65
2022/11/07 07:18:24;;;;;;;13.02;9.38;;;;;;;;;;6249153;28;20048;-65
2022/11/07 07:21:26;;;;;;;12.07;9.15;;;;;;;;;;6248411;28;20168;-67
2022/11/07 07:24:29;;;;;;;15.05;9.90;;;;;;;;;;6253202;28;20118;-65
2022/11/07 07:27:30;;;;;;;12.32;8.80;;;;;;;;;;6250831;28;20065;-67
2022/11/07 07:30:32;;;;;;;12.98;9.57;;;;;;;;;;6252117;28;20122;-64
2022/11/07 07:33:33;;;;;;;11.90;9.25;;;;;;;;;;6251178;28;20402;-66
2022/11/07 07:36:35;;;;;;;13.93;9.68;;;;;;;;;;6250897;28;20076;-66
2022/11/07 07:39:38;;;;;;;13.25;9.35;;;;;;;;;;6252257;28;20328;-66
2022/11/07 07:42:43;;;;;;;11.65;8.95;;;;;;;;;;6258165;28;20095;-66
2022/11/07 07:45:44;;;;;;;11.82;9.15;;;;;;;;;;6259984;28;20061;-64
2022/11/07 07:48:46;;;;;;;15.95;10.35;;;;;;;;;;6252906;28;20041;-66
2022/11/07 07:51:48;;;;;;;13.35;8.98;;;;;;;;;;6260307;28;20060;-66
2022/11/07 07:54:51;;;;;;;12.43;9.30;;;;;;;;;;6252770;28;20057;-66
2022/11/07 07:57:52;;;;;;;12.05;9.30;;;;;;;;;;6254904;28;20107;-66
2022/11/07 08:00:56;;;;;;;12.07;9.02;;;;;;;;;;6251631;28;20053;-66
2022/11/07 08:03:58;;;;;;;12.07;9.15;;;;;;;;;;6250283;28;20061;-66
2022/11/07 08:06:59;;;;;;;14.73;9.13;;;;;;;;;;6249177;28;20052;-66
2022/11/07 08:10:02;;;;;;;14.00;8.88;;;;;;;;;;6255195;28;20236;-66
2022/11/07 08:13:04;;;;;;;10.60;8.83;;;;;;;;;;6254091;28;20064;-65
2022/11/07 08:16:07;;;;;;;9.77;6.70;;;;;;;;;;6254576;28;20118;-66
2022/11/07 08:19:09;;;;;;;6.50;5.07;;;;;;;;;;6258268;28;20511;-66
2022/11/07 08:22:11;;;;;;;6.95;5.30;;;;;;;;;;6257402;28;20336;-66
2022/11/07 08:25:14;;;;;;;7.57;5.53;;;;;;;;;;6256724;28;20136;-66
2022/11/07 08:28:15;;;;;;;7.75;5.45;;;;;;;;;;6256149;28;20045;-67
2022/11/07 08:31:17;;;;;;;7.40;5.03;;;;;;;;;;6253518;28;20049;-67
2022/11/07 08:34:19;;;;;;;7.10;5.28;;;;;;;;;;6255177;28;20325;-65
2022/11/07 08:37:20;;;;;;;7.68;5.45;;;;;;;;;;6254912;28;20053;-63
2022/11/07 08:40:23;;;;;;;9.60;5.68;;;;;;;;;;6255119;28;20123;-67
2022/11/07 08:43:25;;;;;;;7.43;5.13;;;;;;;;;;6251536;28;20713;-66
2022/11/07 08:46:27;;;;;;;8.43;5.72;;;;;;;;;;6253653;28;20484;-66
2022/11/07 08:49:28;;;;;;;9.63;5.90;;;;;;;;;;6255376;28;20313;-66
2022/11/07 08:52:30;;;;;;;9.07;5.93;;;;;;;;;;6250404;28;20049;-65
2022/11/07 08:55:33;;;;;;;8.75;6.10;;;;;;;;;;6250641;28;20050;-65
2022/11/07 08:58:35;;;;;;;7.63;5.50;;;;;;;;;;6248969;28;20076;-66
2022/11/07 09:01:37;;;;;;;5.68;4.82;;;;;;;;;;6249404;28;20071;-65
2022/11/07 09:04:39;;;;;;;6.60;4.82;;;;;;;;;;6252337;28;20060;-65
2022/11/07 09:07:40;;;;;;;5.95;4.50;;;;;;;;;;6246492;28;20359;-68
2022/11/07 09:10:43;;;;;;;4.88;4.00;;;;;;;;;;6250426;28;20064;-67
2022/11/07 09:13:46;;;;;;;4.82;3.63;;;;;;;;;;6249576;28;20061;-68
2022/11/07 09:16:48;;;;;;;5.68;3.92;;;;;;;;;;6252049;28;20329;-67
2022/11/07 09:19:49;;;;;;;5.68;4.18;;;;;;;;;;6249514;28;20052;-65
2022/11/07 09:22:55;;;;;;;6.20;4.47;;;;;;;;;;6252294;28;20060;-67
2022/11/07 09:26:00;;;;;;;5.47;4.57;;;;;;;;;;6254063;28;20074;-67
2022/11/07 09:29:01;;;;;;;8.02;4.50;;;;;;;;;;6258872;28;20071;-67
2022/11/07 09:32:03;;;;;;;5.03;4.45;;;;;;;;;;6256278;28;20325;-67
2022/11/07 09:35:06;;;;;;;5.80;4.80;;;;;;;;;;6253634;28;20400;-67
2022/11/07 09:38:08;;;;;;;6.57;4.13;;;;;;;;;;6257063;28;20468;-67
2022/11/07 09:41:22;;;;;;;4.93;3.95;;;;;;;;;;6254143;28;20072;-67
2022/11/07 09:44:40;;;;;;;6.38;3.80;;;;;;;;;;6255630;28;20242;-68
2022/11/07 09:47:44;;;;;;;4.40;3.55;;;;;;;;;;6255810;28;20108;-67
2022/11/07 09:50:48;;;;;;;4.85;3.50;;;;;;;;;;6254990;28;20068;-67
2022/11/07 09:53:53;;;;;;;4.18;3.30;;;;;;;;;;6256012;28;20264;-67
2022/11/07 09:56:58;;;;;;;6.05;3.30;;;;;;;;;;6254746;28;20216;-68
2022/11/07 10:00:00;;;;;;;4.47;3.25;;;;;;;;;;6254212;28;20053;-67
2022/11/07 10:03:02;;;;;;;3.53;2.95;;;;;;;;;;6256752;28;20049;-68
2022/11/07 10:06:13;;;;;;;3.60;2.88;;;;;;;;;;6255859;28;20076;-67
2022/11/07 10:09:18;;;;;;;4.03;2.78;;;;;;;;;;6251529;28;20118;-69
2022/11/07 10:12:34;;;;;;;4.22;3.30;;;;;;;;;;6253137;28;20087;-68
2022/11/07 10:15:48;;;;;;;4.45;3.30;;;;;;;;;;6255765;28;20118;-67
2022/11/07 10:18:59;;;;;;;4.03;3.38;;;;;;;;;;6252752;28;20041;-66
2022/11/07 10:22:12;;;;;;;6.40;3.92;;;;;;;;;;6255358;28;20056;-67
2022/11/07 10:25:19;;;;;;;4.97;4.00;;;;;;;;;;6251554;28;20113;-67
2022/11/07 10:28:25;;;;;;;5.60;4.30;;;;;;;;;;6255508;28;20045;-64
2022/11/07 10:31:33;;;;;;;4.63;4.20;;;;;;;;;;6252953;28;20053;-66
2022/11/07 10:34:36;;;;;;;5.30;3.72;;;;;;;;;;6254211;28;20053;-66
2022/11/07 10:37:38;;;;;;;4.05;3.65;;;;;;;;;;6254089;28;20112;-64
2022/11/07 10:40:41;;;;;;;4.88;4.20;;;;;;;;;;6255219;28;20336;-66
2022/11/07 10:43:45;;;;;;;4.63;3.67;;;;;;;;;;6253688;28;20351;-67
2022/11/07 10:46:47;;;;;;;5.20;4.50;;;;;;;;;;6253585;28;20053;-66
2022/11/07 10:49:58;;;;;;;6.05;4.18;;;;;;;;;;6256090;28;20323;-67
2022/11/07 10:53:01;;;;;;;5.10;4.10;;;;;;;;;;6250785;28;20064;-68
2022/11/07 10:56:09;;;;;;;4.93;4.43;;;;;;;;;;6253863;28;20063;-68
2022/11/07 10:59:14;;;;;;;4.43;3.75;;;;;;;;;;6253521;28;20332;-67
2022/11/07 11:02:20;;;;;;;4.35;3.88;;;;;;;;;;6254037;28;20119;-67
2022/11/07 11:05:27;;;;;;;3.90;3.30;;;;;;;;;;6251605;28;20049;-67
2022/11/07 11:08:31;;;;;;;4.32;3.15;;;;;;;;;;6251105;28;20321;-68
2022/11/07 11:11:35;;;;;;;3.10;2.80;;;;;;;;;;6253496;28;20153;-68
2022/11/07 11:14:39;;;;;;;3.63;2.88;;;;;;;;;;6251869;28;20065;-66
2022/11/07 11:17:41;;;;;;;3.40;2.97;;;;;;;;;;6250554;28;20202;-67
2022/11/07 11:20:44;;;;;;;4.00;3.03;;;;;;;;;;6252735;28;20063;-65
2022/11/07 11:23:47;;;;;;;3.45;3.15;;;;;;;;;;6252469;28;20058;-66
2022/11/07 11:26:50;;;;;;;4.68;3.17;;;;;;;;;;6252816;28;20231;-67
2022/11/07 11:29:56;;;;;;;3.45;3.15;;;;;;;;;;6254559;28;20131;-67
2022/11/07 11:33:04;;;;;;;3.42;3.10;;;;;;;;;;6253097;28;20056;-67
2022/11/07 11:36:10;;;;;;;5.28;3.45;;;;;;;;;;6254776;28;20115;-66
2022/11/07 11:39:25;;;;;;;4.07;3.67;;;;;;;;;;6250274;28;20138;-67
2022/11/07 11:42:34;;;;;;;4.45;3.85;;;;;;;;;;6248735;28;20146;-65
2022/11/07 11:45:43;;;;;;;3.63;3.22;;;;;;;;;;6248704;28;20371;-66
2022/11/07 11:48:48;;;;;;;3.30;2.92;;;;;;;;;;6251313;28;20057;-65
2022/11/07 11:51:53;;;;;;;3.65;2.58;;;;;;;;;;6249331;28;20053;-65
2022/11/07 11:54:56;;;;;;;3.53;2.95;;;;;;;;;;6252789;28;20124;-68
2022/11/07 11:58:01;;;;;;;3.40;2.67;;;;;;;;;;6248894;28;20275;-66
2022/11/07 12:01:09;;;;;;;4.20;3.17;;;;;;;;;;6252384;28;20128;-66
2022/11/07 12:04:26;;;;;;;3.58;3.25;;;;;;;;;;6249270;28;20050;-65
2022/11/07 12:07:44;;;;;;;4.07;2.60;;;;;;;;;;6245070;28;20282;-67
2022/11/07 12:10:49;;;;;;;3.40;3.10;;;;;;;;;;6248676;28;20053;-67
2022/11/07 12:13:59;;;;;;;3.47;3.00;;;;;;;;;;6248733;28;20045;-65
2022/11/07 12:17:05;;;;;;;3.00;2.70;;;;;;;;;;6253037;28;20050;-66
2022/11/07 12:20:18;;;;;;;4.22;3.03;;;;;;;;;;6254986;28;20365;-66
2022/11/07 12:23:28;;;;;;;3.40;3.10;;;;;;;;;;6248371;28;20049;-65
2022/11/07 12:26:33;;;;;;;3.50;3.17;;;;;;;;;;6249508;28;20185;-66
2022/11/07 12:29:46;;;;;;;3.75;3.33;;;;;;;;;;6248979;28;20046;-66
2022/11/07 12:33:01;;;;;;;4.45;3.13;;;;;;;;;;6249041;28;20045;-66
2022/11/07 12:36:11;;;;;;;3.53;2.97;;;;;;;;;;6250106;28;20049;-65
2022/11/07 12:39:27;;;;;;;4.20;3.80;;;;;;;;;;6250830;28;20040;-66
2022/11/07 12:42:40;;;;;;;4.78;3.72;;;;;;;;;;6250873;28;20076;-66
2022/11/07 12:45:55;;;;;;;5.82;3.75;;;;;;;;;;6250535;28;20403;-65
2022/11/07 12:49:08;;;;;;;4.05;3.40;;;;;;;;;;6248021;28;20288;-66
2022/11/07 12:52:26;;;;;;;4.60;3.53;;;;;;;;;;6251648;28;20107;-65
2022/11/07 12:55:33;;;;;;;5.55;4.13;;;;;;;;;;6252070;28;20158;-66
2022/11/07 12:58:35;;;;;;;5.35;3.85;;;;;;;;;;6255224;28;20097;-66
2022/11/07 13:01:40;;;;;;;5.13;3.90;;;;;;;;;;6252817;28;20376;-64
2022/11/07 13:04:47;;;;;;;5.03;3.80;;;;;;;;;;6258181;28;20065;-65
2022/11/07 13:07:55;;;;;;;4.70;3.80;;;;;;;;;;6253708;28;20167;-66
2022/11/07 13:10:59;;;;;;;6.38;4.72;;;;;;;;;;6254166;28;20056;-64
2022/11/07 13:14:17;;;;;;;6.85;5.18;;;;;;;;;;6257459;28;20057;-64
2022/11/07 13:17:22;;;;;;;7.00;5.25;;;;;;;;;;6256914;28;20206;-65
2022/11/07 13:20:28;;;;;;;8.20;5.72;;;;;;;;;;6252933;28;20144;-65
2022/11/07 13:23:30;;;;;;;7.80;5.95;;;;;;;;;;6258494;28;20053;-66
2022/11/07 13:26:31;;;;;;;9.98;6.65;;;;;;;;;;6253779;28;20053;-65
2022/11/07 13:29:38;;;;;;;7.78;6.20;;;;;;;;;;6255018;28;20045;-65
2022/11/07 13:32:40;;;;;;;10.65;6.68;;;;;;;;;;6257970;28;20043;-66
2022/11/07 13:35:53;;;;;;;9.95;6.53;;;;;;;;;;6254754;28;20115;-65
2022/11/07 13:38:56;;;;;;;8.73;6.57;;;;;;;;;;6256293;28;20089;-65
2022/11/07 13:41:59;;;;;;;9.93;6.38;;;;;;;;;;6252493;28;20065;-65
2022/11/07 13:45:09;;;;;;;8.55;7.57;;;;;;;;;;6256264;28;20057;-65
2022/11/07 13:48:16;;;;;;;9.48;6.50;;;;;;;;;;6255943;28;20183;-65
2022/11/07 13:51:23;;;;;;;8.20;6.38;;;;;;;;;;6254935;28;20117;-65
2022/11/07 13:54:28;;;;;;;8.05;6.40;;;;;;;;;;6254736;28;20076;-65
2022/11/07 13:57:34;;;;;;;9.20;6.82;;;;;;;;;;6252663;28;20064;-65
2022/11/07 14:00:37;;;;;;;9.38;6.90;;;;;;;;;;6253700;28;20057;-64
2022/11/07 14:03:38;;;;;;;8.70;6.40;;;;;;;;;;6253263;28;20053;-65
2022/11/07 14:06:41;;;;;;;11.02;6.85;;;;;;;;;;6253580;28;20229;-64
2022/11/07 14:09:43;;;;;;;10.63;6.25;;;;;;;;;;6251798;28;20057;-66
2022/11/07 14:12:45;;;;;;;10.35;6.50;;;;;;;;;;6253820;28;20232;-64
2022/11/07 14:15:48;;;;;;;9.55;6.70;;;;;;;;;;6254647;28;20053;-66
2022/11/07 14:18:50;;;;;;;;;;;;;;;;;;6254637;28;20087;-65
2022/11/07 14:21:55;;;;;;;12.30;6.63;;;;;;;;;;6253518;28;19925;-65
2022/11/07 14:24:57;;;;;;;9.35;6.55;;;;;;;;;;6254047;28;20060;-65
2022/11/07 14:27:59;;;;;;;11.40;7.03;;;;;;;;;;6251732;28;20059;-64
2022/11/07 14:31:01;;;;;;;8.82;6.45;;;;;;;;;;6256831;28;20179;-65
2022/11/07 14:34:15;;;;;;;12.30;7.05;;;;;;;;;;6251813;28;20055;-65
2022/11/07 14:37:20;;;;;;;9.73;5.82;;;;;;;;;;6253490;28;20103;-66
2022/11/07 14:40:22;;;;;;;10.45;6.80;;;;;;;;;;6249558;28;20056;-65
2022/11/07 14:43:25;;;;;;;8.52;6.18;;;;;;;;;;6252815;28;20053;-66
2022/11/07 14:46:27;;;;;;;9.35;6.72;;;;;;;;;;6252687;28;20052;-66
2022/11/07 14:49:34;;;;;;;9.32;6.05;;;;;;;;;;6253894;28;20450;-66
2022/11/07 14:52:40;;;;;;;10.70;6.13;;;;;;;;;;6250970;28;20065;-66
2022/11/07 14:55:43;;;;;;;8.27;6.05;;;;;;;;;;6254665;28;20053;-64
2022/11/07 14:58:46;;;;;;;11.07;7.10;;;;;;;;;;6253460;28;20141;-66
2022/11/07 15:01:53;;;;;;;8.55;6.25;;;;;;;;;;6251979;28;20118;-66
2022/11/07 15:04:55;;;;;;;9.57;6.15;;;;;;;;;;6253521;28;20794;-66
2022/11/07 15:07:59;;;;;;;8.52;6.25;;;;;;;;;;6248378;28;20049;-67
2022/11/07 15:11:03;;;;;;;9.82;5.60;;;;;;;;;;6249896;28;20091;-65
2022/11/07 15:14:07;;;;;;;10.52;6.13;;;;;;;;;;6252884;28;20061;-67
2022/11/07 15:17:16;;;;;;;;;;;;;;;;;;6253300;28;20102;-65
2022/11/07 15:20:22;;;;;;;12.35;6.00;;;;;;;;;;6250235;28;19925;-66
2022/11/07 15:23:31;;;;;;;8.05;6.28;;;;;;;;;;6253628;28;20331;-66
2022/11/07 15:26:35;;;;;;;9.18;6.30;;;;;;;;;;6249973;28;20324;-66
2022/11/07 15:29:37;;;;;;;9.27;5.80;;;;;;;;;;6249951;28;20201;-65
2022/11/07 15:32:42;;;;;;;8.02;5.85;;;;;;;;;;6252143;28;20061;-66
2022/11/07 15:35:45;;;;;;;7.75;5.00;;;;;;;;;;6247347;28;20307;-66
2022/11/07 15:38:48;;;;;;;7.38;5.00;;;;;;;;;;6251460;28;20069;-66
2022/11/07 15:41:50;;;;;;;8.48;5.15;;;;;;;;;;6251266;28;21012;-66
2022/11/07 15:44:52;;;;;;;9.20;5.20;;;;;;;;;;6246408;28;20125;-66
2022/11/07 15:47:54;;;;;;;7.43;5.32;;;;;;;;;;6252486;28;20072;-66
2022/11/07 15:50:56;;;;;;;9.27;4.88;;;;;;;;;;6250679;28;20053;-65
2022/11/07 15:53:59;;;;;;;8.32;4.75;;;;;;;;;;6248702;28;20053;-65
2022/11/07 15:57:03;;;;;;;7.43;4.55;;;;;;;;;;6252589;28;20092;-67
2022/11/07 16:00:07;;;;;;;10.00;5.32;;;;;;;;;;6250304;28;20226;-64
2022/11/07 16:03:16;;;;;;;11.43;5.00;;;;;;;;;;6252206;28;20053;-67
2022/11/07 16:06:23;;;;;;;9.18;5.63;;;;;;;;;;6249198;28;20092;-66
2022/11/07 16:09:28;;;;;;;11.85;6.30;;;;;;;;;;6250701;28;20348;-66
2022/11/07 16:12:29;;;;;;;12.48;6.15;;;;;;;;;;6244929;28;20049;-66
2022/11/07 16:15:31;;;;;;;10.15;5.55;;;;;;;;;;6250082;28;20086;-67
2022/11/07 16:18:36;;;;;;;12.25;5.80;;;;;;;;;;6251089;28;20144;-67
2022/11/07 16:21:38;;;;;;;12.10;6.10;;;;;;;;;;6247049;28;20095;-68
2022/11/07 16:24:42;;;;;;;11.43;5.97;;;;;;;;;;6254351;28;20132;-68
2022/11/07 16:27:47;;;;;;;12.48;6.38;;;;;;;;;;6249195;28;20190;-66
2022/11/07 16:30:49;;;;;;;11.18;5.80;;;;;;;;;;6248154;28;20623;-68
2022/11/07 16:33:52;;;;;;;11.73;5.97;;;;;;;;;;6247785;28;20069;-68
2022/11/07 16:36:53;;;;;;;10.80;6.10;;;;;;;;;;6257663;28;20301;-68
2022/11/07 16:39:56;;;;;;;15.10;7.13;;;;;;;;;;6252012;28;20057;-66
2022/11/07 16:43:01;;;;;;;13.60;6.68;;;;;;;;;;6252439;28;20046;-67
2022/11/07 16:46:04;;;;;;;15.93;6.53;;;;;;;;;;6249211;28;20233;-67
2022/11/07 16:49:13;;;;;;;15.18;7.25;;;;;;;;;;6252020;28;20045;-66
2022/11/07 16:52:16;;;;;;;15.30;7.00;;;;;;;;;;6252081;28;20365;-67
2022/11/07 16:55:19;;;;;;;11.68;6.75;;;;;;;;;;6253019;28;20053;-67
2022/11/07 16:58:26;;;;;;;14.57;6.72;;;;;;;;;;6252685;28;20053;-65
2022/11/07 17:01:28;;;;;;;13.02;6.97;;;;;;;;;;6252574;28;20119;-66
2022/11/07 17:04:29;;;;;;;14.48;6.53;;;;;;;;;;6249720;28;20328;-67
2022/11/07 17:07:31;;;;;;;12.50;6.75;;;;;;;;;;6248985;28;20107;-65
2022/11/07 17:10:34;;;;;;;13.32;6.47;;;;;;;;;;6252215;28;20049;-67
2022/11/07 17:13:36;;;;;;;15.17;7.37;;;;;;;;;;6250230;28;20071;-67
2022/11/07 17:16:38;;;;;;;20.40;8.20;;;;;;;;;;6250553;28;20479;-67
2022/11/07 17:19:39;;;;;;;18.05;7.72;;;;;;;;;;6250292;28;20273;-66
2022/11/07 17:22:41;;;;;;;21.55;9.57;;;;;;;;;;6252879;28;20140;-67
2022/11/07 17:25:47;;;;;;;15.55;7.85;;;;;;;;;;6249079;28;20353;-68
2022/11/07 17:28:49;;;;;;;16.40;8.27;;;;;;;;;;6245241;28;20049;-67
2022/11/07 17:31:51;;;;;;;20.42;8.60;;;;;;;;;;6245917;28;20355;-67
2022/11/07 17:34:53;;;;;;;18.08;8.50;;;;;;;;;;6251680;28;20236;-67
2022/11/07 17:37:56;;;;;;;17.45;8.32;;;;;;;;;;6244771;28;20108;-67
2022/11/07 17:41:15;;;;;;;19.38;9.10;;;;;;;;;;6250120;28;20049;-67
2022/11/07 17:44:17;;;;;;;18.58;8.88;;;;;;;;;;6252030;28;20042;-66
2022/11/07 17:47:28;;;;;;;22.33;9.88;;;;;;;;;;6228789;28;20060;-67
2022/11/07 17:50:29;;;;;;;19.02;9.93;;;;;;;;;;6235320;28;20277;-67
2022/11/07 17:53:31;;;;;;;19.88;8.80;;;;;;;;;;6256618;28;20095;-67
2022/11/07 17:56:34;;;;;;;14.43;8.30;;;;;;;;;;6261527;28;20053;-66
2022/11/07 17:59:36;;;;;;;16.63;8.45;;;;;;;;;;6252017;28;20057;-66
2022/11/07 18:02:38;;;;;;;20.15;8.60;;;;;;;;;;6255938;28;20630;-67
2022/11/07 18:05:41;;;;;;;15.63;8.25;;;;;;;;;;6251081;28;20054;-66
2022/11/07 18:08:43;;;;;;;13.82;7.15;;;;;;;;;;6256258;28;20111;-67
2022/11/07 18:11:46;;;;;;;15.02;7.88;;;;;;;;;;6253050;28;20129;-66
2022/11/07 18:14:47;;;;;;;15.83;7.63;;;;;;;;;;6256125;28;20049;-66
2022/11/07 18:17:49;;;;;;;16.67;8.73;;;;;;;;;;6252848;28;20049;-67
2022/11/07 18:20:51;;;;;;;16.60;7.85;;;;;;;;;;6255801;28;20056;-69
2022/11/07 18:23:52;;;;;;;15.38;8.25;;;;;;;;;;6253652;28;20256;-67
2022/11/07 18:26:55;;;;;;;17.42;7.75;;;;;;;;;;6258764;28;20360;-68
2022/11/07 18:29:57;;;;;;;16.77;7.97;;;;;;;;;;6251802;28;20145;-69
2022/11/07 18:32:59;;;;;;;13.48;7.07;;;;;;;;;;6251540;28;20079;-68
2022/11/07 18:36:01;;;;;;;17.92;8.80;;;;;;;;;;6255805;28;20147;-67
2022/11/07 18:39:03;;;;;;;18.42;7.47;;;;;;;;;;6252044;28;20099;-68
2022/11/07 18:42:06;;;;;;;18.42;8.25;;;;;;;;;;6255005;28;20355;-67
2022/11/07 18:45:09;;;;;;;14.73;7.72;;;;;;;;;;6254482;28;20080;-68
2022/11/07 18:48:10;;;;;;;15.35;8.35;;;;;;;;;;6252041;28;21227;-67
2022/11/07 18:51:15;;;;;;;18.27;8.05;;;;;;;;;;6253566;28;20063;-67
2022/11/07 18:54:17;;;;;;;15.88;8.85;;;;;;;;;;6252874;28;20050;-68
2022/11/07 18:57:20;;;;;;;15.13;8.35;;;;;;;;;;6251118;28;20064;-67
2022/11/07 19:00:21;;;;;;;14.37;7.70;;;;;;;;;;6255352;28;20057;-66
2022/11/07 19:03:23;;;;;;;13.55;8.13;;;;;;;;;;6252473;28;20045;-69
2022/11/07 19:06:26;;;;;;;14.85;7.75;;;;;;;;;;6251626;28;20061;-67
2022/11/07 19:09:30;;;;;;;18.50;8.53;;;;;;;;;;6251513;28;20267;-68
2022/11/07 19:12:32;;;;;;;;;;;;;;;;;;6251285;28;20049;-68
2022/11/07 19:15:38;;;;;;;17.15;9.10;;;;;;;;;;6251741;28;20167;-64
2022/11/07 19:18:39;;;;;;;20.38;9.20;;;;;;;;;;6261793;28;20053;-71
2022/11/07 19:21:41;;;;;;;13.82;8.35;;;;;;;;;;6257116;28;20068;-70
2022/11/07 19:24:43;;;;;;;18.30;8.55;;;;;;;;;;6252657;28;20206;-65
2022/11/07 19:27:46;;;;;;;15.50;8.40;;;;;;;;;;6254831;28;20054;-66
2022/11/07 19:30:48;;;;;;;;;;;;;;;;;;6258796;28;20347;-67
2022/11/07 19:33:49;;;;;;;14.40;7.93;;;;;;;;;;6256928;28;19917;-64
2022/11/07 19:36:51;;;;;;;17.25;8.93;;;;;;;;;;6253666;28;20049;-68
2022/11/07 19:39:53;;;;;;;16.02;7.85;;;;;;;;;;6256328;28;20091;-66
2022/11/07 19:42:56;;;;;;;17.20;8.75;;;;;;;;;;6259832;28;20106;-70
2022/11/07 19:45:57;;;;;;;18.57;9.37;;;;;;;;;;6255462;28;20152;-69
2022/11/07 19:48:59;;;;;;;20.67;9.43;;;;;;;;;;6252527;28;20050;-70
2022/11/07 19:52:01;;;;;;;18.83;9.40;;;;;;;;;;6256075;28;20130;-69
2022/11/07 19:55:03;;;;;;;17.38;9.13;;;;;;;;;;6260701;28;20073;-69
2022/11/07 19:58:06;;;;;;;20.95;9.38;;;;;;;;;;6253030;28;20057;-68
2022/11/07 20:01:12;;;;;;;21.93;9.83;;;;;;;;;;6253318;28;20087;-67
2022/11/07 20:04:13;;;;;;;18.05;10.32;;;;;;;;;;6253492;28;20048;-66
2022/11/07 20:07:15;;;;;;;21.58;12.23;;;;;;;;;;6248048;28;20337;-67
2022/11/07 20:10:16;;;;;;;22.00;12.05;;;;;;;;;;6254563;28;20107;-68
2022/11/07 20:13:19;;;;;;;21.52;11.60;;;;;;;;;;6261201;28;20116;-67
2022/11/07 20:16:22;;;;;;;27.00;12.50;;;;;;;;;;6254003;28;20045;-68
2022/11/07 20:19:24;;;;;;;21.95;11.90;;;;;;;;;;6259863;28;20049;-68
2022/11/07 20:22:25;;;;;;;26.98;11.48;;;;;;;;;;6258771;28;20053;-68
2022/11/07 20:25:28;;;;;;;23.67;11.82;;;;;;;;;;6265315;28;20103;-68
2022/11/07 20:28:31;;;;;;;20.58;11.35;;;;;;;;;;6253963;28;20103;-66
2022/11/07 20:31:35;;;;;;;17.57;10.57;;;;;;;;;;6259053;28;20057;-68